Latest Weather Observations for Pirlangimpi

IDD60801

Issued at 3:01 pm CST Monday 6 July 2015 (issued every 30 minutes, with the page automatically refreshed every 10 minutes)

About weather observations | Map of weather stations | Latest weather observations for NT | Other Formats
Station Details ID: 014142 Name: PIRLANGIMPI AIRPORT Lat: -11.40 Lon: 130.42 Height: 18.3 m
Data from the previous 72 hours. | See also: Recent months at Pirlangimpi
Date/Time
CST
Temp
°C
App
Temp
°C
Dew
Point
Rel
Hum
%
Delta-T
°C
Wind Press
QNH
hPa
Press
MSL
hPa
Rain
since 9 am
mm
Dir
 
Spd
km/h
Gust
km/h
Spd
kts
Gust
kts
06/03:00pm 30.4 31.7 19.4 51 7.2 NE 11 20 6 11 1010.6 1010.5 0.0
06/02:30pm 29.5 30.9 19.5 55 6.5 NNE 11 20 6 11 1010.8 1010.7 0.0
06/02:00pm 29.2 31.0 19.5 56 6.3 NE 9 19 5 10 1011.1 1011.0 0.0
06/01:30pm 30.1 31.2 18.8 50 7.3 NE 11 20 6 11 1011.5 1011.4 0.0
06/01:00pm 28.7 29.6 18.5 54 6.5 ENE 11 20 6 11 1012.0 1011.9 0.0
06/12:30pm 30.0 32.1 19.4 53 6.9 E 7 20 4 11 1012.4 1012.3 0.0
06/12:00pm 30.2 31.3 18.9 50 7.3 ENE 11 24 6 13 1012.8 1012.7 0.0
06/11:30am 28.1 28.3 18.5 56 6.1 E 15 20 8 11 1013.0 1012.9 0.0
06/11:00am 29.3 29.8 19.3 55 6.5 ENE 15 24 8 13 1013.3 1013.2 0.0
06/10:30am 27.7 29.5 19.5 61 5.3 ESE 9 17 5 9 1013.6 1013.5 0.0
06/10:00am 26.7 28.6 19.8 66 4.5 ESE 9 13 5 7 1013.9 1013.8 0.0
06/09:30am 25.4 26.6 19.8 71 3.6 ESE 13 24 7 13 1013.6 1013.5 0.0
06/09:00am 25.0 25.9 20.0 74 3.2 E 15 28 8 15 1013.6 1013.5 0.0
06/08:30am 24.2 26.8 20.5 80 2.4 ESE 7 13 4 7 1013.6 1013.5 0.0
06/08:00am 22.5 25.0 19.9 85 1.7 ESE 6 9 3 5 1013.5 1013.4 0.0
06/07:30am 21.7 23.8 18.9 84 1.8 ENE 6 7 3 4 1013.2 1013.1 0.0
06/07:00am 22.0 24.5 19.0 83 1.9 ENE 4 6 2 3 1012.9 1012.8 0.0
06/06:30am 22.0 24.3 18.6 81 2.1 E 4 6 2 3 1012.7 1012.6 0.0
06/06:00am 22.1 24.0 18.5 80 2.3 ESE 6 9 3 5 1012.5 1012.4 0.0
06/05:30am 21.8 23.6 18.4 81 2.1 ESE 6 7 3 4 1012.7 1012.6 0.0
06/05:00am 21.5 23.2 18.1 81 2.1 ESE 6 6 3 3 1012.7 1012.6 0.0
06/04:30am 20.9 23.1 17.5 81 2.1 SE 2 4 1 2 1012.6 1012.5 0.0
06/04:00am 21.9 24.0 18.1 79 2.4 ESE 4 4 2 2 1012.4 1012.3 0.0
06/03:30am 21.9 24.1 18.3 80 2.3 ESE 4 4 2 2 1012.3 1012.2 0.0
06/03:00am 21.7 24.1 18.7 83 1.9 SE 4 6 2 3 1012.4 1012.3 0.0
06/02:30am 21.7 24.4 17.7 78 2.5 CALM 0 4 0 2 1012.4 1012.3 0.0
06/02:00am 22.1 25.1 18.5 80 2.3 CALM 0 4 0 2 1012.5 1012.4 0.0
06/01:30am 21.9 24.5 17.5 76 2.7 CALM 0 0 0 0 1012.5 1012.4 0.0
06/01:00am 22.9 25.6 17.8 73 3.2 CALM 0 0 0 0 1012.4 1012.3 0.0
06/12:30am 23.3 25.8 18.2 73 3.2 ENE 2 4 1 2 1012.3 1012.2 0.0
06/12:00am 23.4 25.5 18.1 72 3.3 NE 4 6 2 3 1012.7 1012.6 0.0
 
Date/Time
CST
Temp
°C
App
Temp
°C
Dew
Point
Rel
Hum
%
Delta-T
°C
Wind Press
QNH
hPa
Press
MSL
hPa
Rain
since 9 am
mm
Dir
 
Spd
km/h
Gust
km/h
Spd
kts
Gust
kts
05/11:30pm 23.8 26.2 18.0 70 3.6 ENE 2 4 1 2 1012.8 1012.7 0.0
05/11:00pm 24.0 26.1 18.2 70 3.6 E 4 6 2 3 1012.9 1012.8 0.0
05/10:30pm 23.6 25.8 18.3 72 3.3 NE 4 6 2 3 1013.2 1013.1 0.0
05/10:00pm 23.8 26.7 18.2 71 3.5 CALM 0 0 0 0 1013.5 1013.4 0.0
05/09:30pm 24.0 27.0 18.4 71 3.5 CALM 0 0 0 0 1013.4 1013.3 0.0
05/09:00pm 24.0 27.0 18.4 71 3.5 CALM 0 0 0 0 1013.3 1013.2 0.0
05/08:30pm 24.3 27.3 18.5 70 3.7 CALM 0 0 0 0 1013.3 1013.2 0.0
05/08:00pm 24.4 27.3 18.1 68 4.0 CALM 0 0 0 0 1013.1 1013.0 0.0
05/07:30pm 24.8 27.6 18.0 66 4.3 CALM 0 0 0 0 1012.8 1012.7 0.0
05/07:00pm 25.3 28.0 17.7 62 4.8 CALM 0 0 0 0 1012.8 1012.7 0.0
05/06:30pm 25.6 27.8 17.5 61 5.1 ENE 2 4 1 2 1012.6 1012.5 0.0
05/06:00pm 25.9 28.2 17.8 61 5.1 E 2 6 1 3 1012.5 1012.4 0.0
05/05:30pm 26.3 28.2 17.6 58 5.5 SE 4 7 2 4 1012.1 1012.0 0.0
05/05:00pm 26.9 28.3 17.4 56 6.0 SE 6 7 3 4 1011.9 1011.8 0.0
05/04:30pm 27.1 28.5 17.3 55 6.1 SSE 6 9 3 5 1011.9 1011.8 0.0
05/04:00pm 27.5 28.4 16.5 51 6.8 SSW 7 13 4 7 1011.9 1011.8 0.0
05/03:30pm 28.9 28.5 16.1 46 7.9 SSW 13 17 7 9 1011.8 1011.7 0.0
05/03:00pm 29.1 28.9 16.6 46 7.8 SSW 13 17 7 9 1012.0 1011.9 0.0
05/02:30pm 28.9 28.6 16.5 47 7.7 SSW 13 19 7 10 1012.5 1012.4 0.0
05/02:00pm 29.1 30.0 16.0 45 8.1 SW 6 13 3 7 1012.9 1012.8 0.0
05/01:30pm 29.6 30.0 16.4 45 8.2 SSW 9 15 5 8 1013.3 1013.2 0.0
05/01:00pm 28.1 29.0 16.1 48 7.4 SSW 6 9 3 5 1013.8 1013.7 0.0
05/12:30pm 28.0 28.1 15.6 46 7.6 SSW 9 13 5 7 1014.2 1014.1 0.0
05/12:00pm 27.5 28.0 15.5 48 7.3 SSW 7 11 4 6 1014.6 1014.5 0.0
05/11:30am 28.3 27.9 15.2 44 8.0 SSW 11 17 6 9 1014.8 1014.7 0.0
05/11:00am 28.3 28.9 15.9 47 7.6 SW 7 15 4 8 1014.9 1014.8 0.0
05/10:30am 27.6 28.9 17.5 54 6.4 SW 7 11 4 6 1015.1 1015.0 0.0
05/10:00am 26.1 28.2 18.0 61 5.1 SSE 4 6 2 3 1015.1 1015.0 0.0
05/09:30am 24.0 25.2 16.8 64 4.4 SSE 6 7 3 4 1015.2 1015.1 0.0
05/09:00am 22.0 25.3 20.8 93 0.8 S 4 6 2 3 1015.1 1015.0 0.0
05/08:30am 20.1 23.2 19.4 96 0.4 SSE 2 4 1 2 1014.9 1014.8 0.0
05/08:00am 17.6 19.9 16.8 95 0.5 CALM 0 0 0 0 1014.7 1014.6 0.0
05/07:30am 16.0 17.2 14.9 93 0.6 ESE 2 4 1 2 1014.5 1014.4 0.0
05/07:00am 15.7 17.2 14.6 93 0.6 CALM 0 0 0 0 1014.2 1014.1 0.0
05/06:30am 15.8 16.9 14.5 92 0.7 NE 2 6 1 3 1013.9 1013.8 0.0
05/06:00am 15.9 16.9 14.4 91 0.9 ENE 2 6 1 3 1013.8 1013.7 0.0
05/05:30am 16.2 17.3 14.7 91 0.9 ENE 2 2 1 1 1013.6 1013.5 0.0
05/05:00am 16.5 17.8 15.2 92 0.8 NE 2 4 1 2 1013.4 1013.3 0.0
05/04:30am 16.9 18.7 15.4 91 0.9 CALM 0 2 0 1 1013.3 1013.2 0.0
05/04:00am 17.4 19.5 16.3 93 0.7 CALM 0 2 0 1 1013.1 1013.0 0.0
05/03:30am 17.2 18.7 15.7 91 0.9 ENE 2 2 1 1 1013.1 1013.0 0.0
05/03:00am 17.3 18.4 15.6 90 1.0 ENE 4 6 2 3 1013.3 1013.2 0.0
05/02:30am 17.4 18.6 15.9 91 0.9 NE 4 6 2 3 1013.6 1013.5 0.0
05/02:00am 17.6 18.9 16.1 91 0.9 NE 4 6 2 3 1013.6 1013.5 0.0
05/01:30am 17.7 19.7 15.9 89 1.1 CALM 0 4 0 2 1013.7 1013.6 0.0
05/01:00am 18.2 20.4 16.5 90 1.0 CALM 0 0 0 0 1014.0 1013.9 0.0
05/12:30am 18.4 20.5 16.2 87 1.3 CALM 0 0 0 0 1013.8 1013.7 0.0
05/12:00am 18.7 20.7 16.1 85 1.5 CALM 0 0 0 0 1013.8 1013.7 0.0
 
Date/Time
CST
Temp
°C
App
Temp
°C
Dew
Point
Rel
Hum
%
Delta-T
°C
Wind Press
QNH
hPa
Press
MSL
hPa
Rain
since 9 am
mm
Dir
 
Spd
km/h
Gust
km/h
Spd
kts
Gust
kts
04/11:30pm 19.1 21.1 16.0 82 1.8 CALM 0 0 0 0 1013.7 1013.6 0.0
04/11:00pm 19.4 21.6 16.4 83 1.8 CALM 0 0 0 0 1013.8 1013.7 0.0
04/10:30pm 19.8 22.0 16.6 82 1.9 CALM 0 0 0 0 1013.9 1013.8 0.0
04/10:00pm 20.0 22.2 16.4 80 2.2 CALM 0 0 0 0 1013.9 1013.8 0.0
04/09:30pm 20.4 22.1 16.2 77 2.5 ENE 2 4 1 2 1013.8 1013.7 0.0
04/09:00pm 20.6 22.5 15.8 74 2.9 CALM 0 0 0 0 1013.6 1013.5 0.0
04/08:30pm 21.2 23.0 15.5 70 3.4 CALM 0 0 0 0 1013.3 1013.2 0.0
04/08:00pm 21.7 23.4 15.3 67 3.8 CALM 0 0 0 0 1012.8 1012.7 0.0
04/07:30pm 22.7 24.3 14.8 61 4.7 CALM 0 0 0 0 1012.3 1012.2 0.0
04/07:00pm 24.1 25.7 14.8 56 5.5 CALM 0 0 0 0 1012.0 1011.9 0.0
04/06:30pm 25.5 26.4 15.2 53 6.2 NNW 4 6 2 3 1011.9 1011.8 0.0
04/06:00pm 26.6 27.0 14.7 48 7.2 NNE 6 11 3 6 1011.6 1011.5 0.0
04/05:30pm 28.8 28.4 13.1 38 9.3 ENE 7 11 4 6 1011.2 1011.1 0.0
04/05:00pm 30.3 30.0 11.3 31 11.0 E 4 9 2 5 1011.0 1010.9 0.0
04/04:30pm 30.5 29.6 11.5 31 11.0 ENE 7 13 4 7 1010.8 1010.7 0.0
04/04:00pm 31.3 30.8 12.6 31 11.1 ENE 7 15 4 8 1010.7 1010.6 0.0
04/03:30pm 31.4 28.4 7.8 23 13.0 SSE 13 19 7 10 1010.6 1010.5 0.0
04/03:00pm 31.5 30.4 10.8 28 11.9 SE 7 13 4 7 1010.9 1010.8 0.0
04/02:30pm 31.6 30.2 13.4 33 10.9 ENE 13 19 7 10 1011.3 1011.2 0.0
04/02:00pm 31.5 30.6 13.7 33 10.7 SE 11 20 6 11 1011.8 1011.7 0.0
04/01:30pm 31.1 30.1 13.4 34 10.6 E 11 20 6 11 1012.4 1012.3 0.0
04/01:00pm 30.8 30.4 15.2 38 9.6 E 11 24 6 13 1013.0 1012.9 0.0
04/12:30pm 29.4 28.1 14.8 41 8.9 E 15 22 8 12 1013.4 1013.3 0.0
04/12:00pm 28.8 27.4 14.6 42 8.6 E 15 24 8 13 1013.9 1013.8 0.0
04/11:30am 28.8 27.6 15.0 43 8.4 E 15 24 8 13 1014.3 1014.2 0.0
04/11:00am 27.9 27.4 15.9 48 7.4 E 13 17 7 9 1014.8 1014.7 0.0
04/10:30am 27.1 28.0 17.6 56 6.0 ESE 9 17 5 9 1015.1 1015.0 0.0
04/10:00am 26.4 27.0 17.7 58 5.5 E 11 19 6 10 1015.3 1015.2 0.0
04/09:30am 25.8 27.1 18.5 64 4.6 E 9 15 5 8 1015.5 1015.4 0.0
04/09:00am 24.5 25.7 18.2 68 4.0 E 9 15 5 8 1015.4 1015.3 0.0
04/08:30am 23.1 24.9 18.2 74 3.1 E 6 9 3 5 1015.2 1015.1 0.0
04/08:00am 21.4 23.1 18.4 83 1.9 E 7 11 4 6 1015.0 1014.9 0.0
04/07:30am 19.9 21.4 18.0 89 1.2 E 7 9 4 5 1014.8 1014.7 0.0
04/07:00am 19.1 20.4 17.2 89 1.2 E 6 7 3 4 1014.7 1014.6 0.0
04/06:30am 18.5 20.1 15.9 85 1.5 ENE 2 2 1 1 1014.4 1014.3 0.0
04/06:00am 19.5 21.2 17.1 86 1.5 SE 4 4 2 2 1014.3 1014.2 0.0
04/05:30am 19.4 21.2 17.4 88 1.2 SE 4 6 2 3 1014.1 1014.0 0.0
04/05:00am 19.4 21.1 17.2 87 1.3 SE 4 4 2 2 1013.9 1013.8 0.0
04/04:30am 19.7 21.5 17.3 86 1.5 ESE 4 6 2 3 1013.7 1013.6 0.0
04/04:00am 19.8 21.6 17.4 86 1.5 SE 4 6 2 3 1013.7 1013.6 0.0
04/03:30am 19.8 21.6 17.4 86 1.5 SE 4 6 2 3 1013.7 1013.6 0.0
04/03:00am 20.3 22.4 18.1 87 1.4 SE 4 6 2 3 1013.8 1013.7 0.0
04/02:30am 20.4 22.7 18.5 89 1.2 SSE 4 6 2 3 1014.1 1014.0 0.0
04/02:00am 20.7 23.2 19.0 90 1.1 SSE 4 6 2 3 1014.3 1014.2 0.0
04/01:30am 21.1 23.9 19.7 92 0.9 SE 4 7 2 4 1014.3 1014.2 0.0
04/01:00am 20.7 23.2 19.0 90 1.1 SE 4 6 2 3 1014.4 1014.3 0.0
04/12:30am 19.7 21.8 18.0 90 1.0 SE 4 6 2 3 1014.5 1014.4 0.0
04/12:00am 20.0 22.1 18.0 88 1.2 SSW 4 6 2 3 1014.5 1014.4 0.0
 
Date/Time
CST
Temp
°C
App
Temp
°C
Dew
Point
Rel
Hum
%
Delta-T
°C
Wind Press
QNH
hPa
Press
MSL
hPa
Rain
since 9 am
mm
Dir
 
Spd
km/h
Gust
km/h
Spd
kts
Gust
kts
03/11:30pm 20.3 23.2 18.1 87 1.4 CALM 0 0 0 0 1014.3 1014.2 0.0
03/11:00pm 20.5 23.3 17.9 85 1.6 CALM 0 0 0 0 1014.3 1014.2 0.0
03/10:30pm 21.1 24.1 18.5 85 1.6 CALM 0 0 0 0 1014.3 1014.2 0.0
03/10:00pm 21.6 24.7 18.6 83 1.9 CALM 0 0 0 0 1014.2 1014.1 0.0
03/09:30pm 21.8 25.0 18.8 83 1.9 CALM 0 4 0 2 1013.9 1013.8 0.0
03/09:00pm 22.2 25.3 18.6 80 2.3 CALM 0 0 0 0 1013.7 1013.6 0.0
03/08:30pm 23.1 26.2 18.6 76 2.8 CALM 0 2 0 1 1013.4 1013.3 0.0
03/08:00pm 23.6 26.3 18.7 74 3.1 NE 2 6 1 3 1013.1 1013.0 0.0
03/07:30pm 24.1 26.2 18.1 69 3.8 ENE 4 6 2 3 1012.8 1012.7 0.0
03/07:00pm 25.1 26.5 16.5 59 5.3 NE 4 7 2 4 1012.6 1012.5 0.0
03/06:30pm 27.2 26.9 13.2 42 8.2 ENE 7 11 4 6 1012.3 1012.2 0.0
03/06:00pm 28.1 26.8 13.6 41 8.6 ENE 13 19 7 10 1012.1 1012.0 0.0
03/05:30pm 29.0 27.7 13.6 38 9.2 ENE 13 22 7 12 1012.1 1012.0 0.0
03/05:00pm 29.6 28.5 14.2 39 9.3 E 13 22 7 12 1011.8 1011.7 0.0
03/04:30pm 30.4 28.6 14.5 38 9.7 ENE 17 30 9 16 1011.8 1011.7 0.0
03/04:00pm 30.1 28.8 13.8 37 9.8 ESE 13 20 7 11 1012.0 1011.9 0.0
03/03:30pm 31.1 29.6 14.3 36 10.2 E 15 24 8 13 1012.2 1012.1 0.0

Other Formats:

Comma delimited format used in spreadsheet applications
http://www.bom.gov.au/fwo/IDD60801/IDD60801.94119.axf

JavaScript Object Notation format (JSON) in row-major order
http://www.bom.gov.au/fwo/IDD60801/IDD60801.94119.json